createdAt,value
2023-04-12T00:02:02.469Z,99093.65
2023-04-12T00:04:34.789Z,99089.16
2023-04-12T00:07:03.615Z,99088.70
2023-04-12T00:09:32.694Z,99088.64
2023-04-12T00:12:02.044Z,99086.33
2023-04-12T00:14:31.416Z,99081.69
2023-04-12T00:17:01.963Z,99087.88
2023-04-12T00:19:31.500Z,99084.33
2023-04-12T00:22:05.002Z,99079.13
2023-04-12T00:24:33.975Z,99085.03
2023-04-12T00:27:02.489Z,99076.98
2023-04-12T00:29:37.429Z,99075.91
2023-04-12T00:32:06.741Z,99073.83
2023-04-12T00:34:35.725Z,99068.70
2023-04-12T00:37:05.029Z,99069.02
2023-04-12T00:39:33.439Z,99067.42
2023-04-12T00:42:06.960Z,99062.75
2023-04-12T00:44:36.031Z,99065.45
2023-04-12T00:47:07.203Z,99067.77
2023-04-12T00:49:38.955Z,99061.96
2023-04-12T00:52:15.026Z,99057.91
2023-04-12T00:54:51.951Z,99052.08
2023-04-12T00:57:21.322Z,99049.17
2023-04-12T00:59:49.796Z,99047.43
2023-04-12T01:02:18.808Z,99038.42
2023-04-12T01:04:51.464Z,99037.89
2023-04-12T01:07:37.436Z,99031.21
2023-04-12T01:10:14.294Z,99033.16
2023-04-12T01:13:19.196Z,99026.40
2023-04-12T01:15:58.375Z,99029.45
2023-04-12T01:18:34.428Z,99024.76
2023-04-12T01:21:10.069Z,99021.83
2023-04-12T01:24:04.186Z,99020.14
2023-04-12T01:26:47.984Z,99018.83
2023-04-12T01:29:19.833Z,99017.87
2023-04-12T01:31:55.224Z,99015.78
2023-04-12T01:34:28.660Z,99014.58
2023-04-12T01:37:01.610Z,99011.43
2023-04-12T01:39:34.225Z,99014.80
2023-04-12T01:42:04.700Z,99012.09
2023-04-12T01:44:33.186Z,99008.77
2023-04-12T01:47:02.527Z,99010.42
2023-04-12T01:49:39.772Z,99010.80
2023-04-12T01:52:19.135Z,99013.48
2023-04-12T01:54:51.633Z,99013.15
2023-04-12T01:57:22.017Z,99012.57
2023-04-12T01:59:52.392Z,99014.59
2023-04-12T02:02:22.829Z,99017.85
2023-04-12T02:04:53.553Z,99017.66
2023-04-12T02:07:23.025Z,99019.72
2023-04-12T02:09:52.050Z,99019.14
2023-04-12T02:12:24.358Z,99025.80
2023-04-12T02:14:52.804Z,99026.95
2023-04-12T02:17:25.618Z,99023.93
2023-04-12T02:19:55.569Z,99028.61
2023-04-12T02:22:24.416Z,99029.94
2023-04-12T02:24:55.237Z,99030.08
2023-04-12T02:27:26.639Z,99031.38
2023-04-12T02:29:55.073Z,99031.81
2023-04-12T02:32:24.907Z,99030.30
2023-04-12T02:34:53.726Z,99028.38
2023-04-12T02:37:31.133Z,99030.32
2023-04-12T02:40:02.636Z,99034.05
2023-04-12T02:42:32.806Z,99039.90
2023-04-12T02:45:01.233Z,99042.27
2023-04-12T02:47:32.844Z,99040.09
2023-04-12T02:50:02.616Z,99042.35
2023-04-12T02:52:33.375Z,99038.78
2023-04-12T02:55:09.358Z,99042.48
2023-04-12T02:57:37.936Z,99047.77
2023-04-12T03:00:16.200Z,99046.13
2023-04-12T03:03:09.190Z,99049.65
2023-04-12T03:05:38.369Z,99051.20
2023-04-12T03:08:06.818Z,99047.52
2023-04-12T03:10:41.854Z,99049.34
2023-04-12T03:13:10.467Z,99047.27
2023-04-12T03:15:43.845Z,99047.21
2023-04-12T03:18:12.926Z,99049.64
2023-04-12T03:20:49.789Z,99051.28
2023-04-12T03:23:21.143Z,99050.45
2023-04-12T03:25:53.858Z,99052.55
2023-04-12T03:28:39.130Z,99056.28
2023-04-12T03:31:08.856Z,99056.83
2023-04-12T03:33:44.626Z,99057.33
2023-04-12T03:36:24.993Z,99057.13
2023-04-12T03:38:57.393Z,99055.71
2023-04-12T03:41:29.971Z,99058.71
2023-04-12T03:44:00.125Z,99060.52
2023-04-12T03:46:29.081Z,99063.45
2023-04-12T03:48:59.036Z,99064.46
2023-04-12T03:51:27.540Z,99066.16
2023-04-12T03:54:03.016Z,99070.55
2023-04-12T03:56:35.831Z,99071.62
2023-04-12T03:59:08.890Z,99071.05
2023-04-12T04:01:39.648Z,99069.39
2023-04-12T04:04:08.782Z,99064.86
2023-04-12T04:06:40.101Z,99064.83
2023-04-12T04:09:08.925Z,99067.70
2023-04-12T04:11:38.420Z,99067.63
2023-04-12T04:14:09.901Z,99067.59
2023-04-12T04:16:38.406Z,99075.55
2023-04-12T04:19:08.144Z,99074.64
2023-04-12T04:21:37.563Z,99078.19
2023-04-12T04:24:07.339Z,99079.77
2023-04-12T04:26:43.666Z,99074.85
2023-04-12T04:29:21.612Z,99077.04
2023-04-12T04:31:51.026Z,99075.42
2023-04-12T04:34:19.661Z,99072.57
2023-04-12T04:36:49.155Z,99069.84
2023-04-12T04:39:27.548Z,99070.03
2023-04-12T04:41:58.330Z,99063.80
2023-04-12T04:44:36.330Z,99061.50
2023-04-12T04:47:08.812Z,99063.55
2023-04-12T04:49:39.752Z,99063.52
2023-04-12T04:52:28.196Z,99068.21
2023-04-12T04:55:01.730Z,99071.14
2023-04-12T04:57:37.704Z,99075.45
2023-04-12T05:00:11.691Z,99082.92
2023-04-12T05:02:46.003Z,99084.48
2023-04-12T05:05:23.265Z,99085.71
2023-04-12T05:07:56.770Z,99083.40
2023-04-12T05:10:29.786Z,99079.69
2023-04-12T05:12:59.670Z,99078.08
2023-04-12T05:15:32.243Z,99074.23
2023-04-12T05:18:08.641Z,99072.65
2023-04-12T05:20:38.913Z,99067.35
2023-04-12T05:23:09.081Z,99057.90
2023-04-12T05:25:47.320Z,99051.14
2023-04-12T05:28:17.747Z,99039.96
2023-04-12T05:30:46.764Z,99040.08
2023-04-12T05:33:18.826Z,99039.13
2023-04-12T05:35:50.173Z,99033.38
2023-04-12T05:38:18.599Z,99033.73
2023-04-12T05:40:50.380Z,99039.98
2023-04-12T05:43:22.992Z,99037.89
2023-04-12T05:45:52.079Z,99040.70
2023-04-12T05:48:26.562Z,99037.60
2023-04-12T05:50:56.768Z,99037.81
2023-04-12T05:53:25.817Z,99040.94
2023-04-12T05:55:54.537Z,99044.35
2023-04-12T05:58:23.880Z,99041.05
2023-04-12T06:00:55.685Z,99044.00
2023-04-12T06:03:25.850Z,99048.66
2023-04-12T06:05:59.644Z,99044.99
2023-04-12T06:08:29.730Z,99042.23
2023-04-12T06:10:58.131Z,99045.70
2023-04-12T06:13:32.500Z,99047.10
2023-04-12T06:16:01.674Z,99042.44
2023-04-12T06:18:30.253Z,99046.48
2023-04-12T06:21:00.839Z,99048.29
2023-04-12T06:23:30.312Z,99052.62
2023-04-12T06:26:01.476Z,99054.55
2023-04-12T06:28:32.130Z,99049.00
2023-04-12T06:31:01.199Z,99047.96
2023-04-12T06:33:33.963Z,99048.25
2023-04-12T06:36:04.139Z,99051.67
2023-04-12T06:38:32.543Z,99051.67
2023-04-12T06:41:03.081Z,99056.58
2023-04-12T06:43:33.926Z,99055.21
2023-04-12T06:46:03.313Z,99052.44
2023-04-12T06:48:32.341Z,99050.16
2023-04-12T06:51:01.809Z,99045.73
2023-04-12T06:53:35.190Z,99039.71
2023-04-12T06:56:04.839Z,99037.33
2023-04-12T06:58:33.199Z,99035.10
2023-04-12T07:01:10.365Z,99032.23
2023-04-12T07:03:41.102Z,99031.67
2023-04-12T07:06:23.691Z,99031.91
2023-04-12T07:08:55.662Z,99035.52
2023-04-12T07:11:24.701Z,99040.83
2023-04-12T07:14:01.773Z,99046.98
2023-04-12T07:16:32.754Z,99044.48
2023-04-12T07:19:01.318Z,99041.98
2023-04-12T07:21:33.634Z,99034.84
2023-04-12T07:24:03.657Z,99035.66
2023-04-12T07:26:32.435Z,99036.83
2023-04-12T07:29:03.865Z,99030.11
2023-04-12T07:31:32.862Z,99024.90
2023-04-12T07:34:01.430Z,99026.16
2023-04-12T07:36:30.123Z,99024.20
2023-04-12T07:38:58.618Z,99029.69
2023-04-12T07:41:29.678Z,99027.98
2023-04-12T07:43:59.930Z,99031.16
2023-04-12T07:46:28.665Z,99034.55
2023-04-12T07:48:57.832Z,99034.30
2023-04-12T07:51:27.455Z,99025.84
2023-04-12T07:53:59.060Z,99022.95
2023-04-12T07:56:27.908Z,99023.48
2023-04-12T07:58:57.132Z,99020.15
2023-04-12T08:01:37.359Z,99011.91
2023-04-12T08:04:07.872Z,99021.20
2023-04-12T08:06:36.717Z,99024.12
2023-04-12T08:09:05.198Z,99020.28
2023-04-12T08:11:35.494Z,99023.77
2023-04-12T08:14:03.837Z,99021.97
2023-04-12T08:16:32.809Z,99024.38
2023-04-12T08:19:03.564Z,99023.65
2023-04-12T08:21:32.835Z,99011.98
2023-04-12T08:24:01.197Z,99010.28
2023-04-12T08:26:30.278Z,99005.00
2023-04-12T08:28:58.709Z,99006.98
2023-04-12T08:31:28.625Z,99002.62
2023-04-12T08:33:57.376Z,99001.34
2023-04-12T08:36:27.460Z,99000.10
2023-04-12T08:39:03.474Z,99001.18
2023-04-12T08:41:33.981Z,99001.65
2023-04-12T08:44:04.239Z,98999.97
2023-04-12T08:46:37.141Z,98998.88
2023-04-12T08:49:05.979Z,98990.80
2023-04-12T08:51:37.770Z,98986.91
2023-04-12T08:54:06.748Z,98984.30
2023-04-12T08:56:44.197Z,98976.20
2023-04-12T08:59:14.115Z,98969.52
2023-04-12T09:01:42.632Z,98968.53
2023-04-12T09:04:11.578Z,98967.04
2023-04-12T09:06:41.694Z,98968.54
2023-04-12T09:09:09.953Z,98963.77
2023-04-12T09:11:40.077Z,98964.09
2023-04-12T09:14:23.793Z,98961.92
2023-04-12T09:16:52.438Z,98960.94
2023-04-12T09:19:48.454Z,98956.38
2023-04-12T09:22:17.059Z,98958.48
2023-04-12T09:24:53.157Z,98951.89
2023-04-12T09:27:23.146Z,98955.01
2023-04-12T09:29:52.374Z,98948.12
2023-04-12T09:32:29.763Z,98940.21
2023-04-12T09:35:01.940Z,98942.35
2023-04-12T09:37:30.515Z,98945.77
2023-04-12T09:40:09.625Z,98933.11
2023-04-12T09:42:53.700Z,98929.45
2023-04-12T09:45:25.751Z,98923.21
2023-04-12T09:47:55.837Z,98912.58
2023-04-12T09:50:33.671Z,98915.51
2023-04-12T09:53:04.513Z,98918.40
2023-04-12T09:55:33.562Z,98919.89
2023-04-12T09:58:04.616Z,98915.88
2023-04-12T13:15:48.111Z,98848.30
2023-04-12T13:18:17.012Z,98846.22
2023-04-12T13:20:52.325Z,98849.36
2023-04-12T13:23:21.279Z,98851.00
2023-04-12T13:25:49.884Z,98858.85
2023-04-12T13:28:18.309Z,98860.39
2023-04-12T13:30:48.933Z,98862.38
2023-04-12T13:33:21.672Z,98864.52
2023-04-12T13:35:50.897Z,98861.13
2023-04-12T13:38:19.338Z,98860.35
2023-04-12T13:40:48.317Z,98862.91
2023-04-12T13:43:17.213Z,98864.34
2023-04-12T13:45:51.259Z,98864.50
2023-04-12T13:48:20.124Z,98868.15
2023-04-12T13:50:50.773Z,98867.23
2023-04-12T13:53:24.452Z,98868.49
2023-04-12T13:55:54.217Z,98868.40
2023-04-12T13:58:22.678Z,98867.68
2023-04-12T14:00:57.039Z,98871.14
2023-04-12T14:03:26.795Z,98875.58
2023-04-12T14:05:55.732Z,98870.88
2023-04-12T14:08:24.145Z,98862.67
2023-04-12T14:10:55.146Z,98860.98
2023-04-12T14:13:24.786Z,98861.30
2023-04-12T14:15:54.363Z,98862.64
2023-04-12T14:18:23.037Z,98866.61
2023-04-12T14:20:52.994Z,98866.94
2023-04-12T14:25:52.939Z,98851.02
2023-04-12T14:28:30.814Z,98853.28
2023-04-12T14:31:04.305Z,98851.34
2023-04-12T14:33:34.705Z,98841.63
2023-04-12T14:36:05.284Z,98835.95
2023-04-12T14:38:39.295Z,98836.10
2023-04-12T14:41:11.672Z,98840.09
2023-04-12T14:43:40.121Z,98849.59
2023-04-12T14:46:08.833Z,98850.73
2023-04-12T14:48:37.961Z,98849.45
2023-04-12T14:51:06.815Z,98840.30
2023-04-12T14:53:35.341Z,98827.52
2023-04-12T14:56:04.178Z,98843.29
2023-04-12T14:58:38.618Z,98853.12
2023-04-12T15:01:12.467Z,98858.74
2023-04-12T15:03:45.046Z,98864.47
2023-04-12T15:06:18.537Z,98866.08
2023-04-12T15:08:49.755Z,98861.27
2023-04-12T15:11:19.386Z,98877.42
2023-04-12T15:13:50.077Z,98889.61
2023-04-12T15:16:21.236Z,98885.48
2023-04-12T15:18:52.013Z,98877.44
2023-04-12T15:21:20.729Z,98877.59
2023-04-12T15:23:51.446Z,98877.58
2023-04-12T15:26:19.883Z,98871.56
2023-04-12T15:28:48.408Z,98850.80
2023-04-12T15:31:18.883Z,98844.00
2023-04-12T15:33:49.802Z,98854.59
2023-04-12T15:36:19.191Z,98862.46
2023-04-12T15:38:48.157Z,98866.07
2023-04-12T15:41:16.787Z,98865.86
2023-04-12T15:43:49.653Z,98868.13
2023-04-12T15:46:26.232Z,98864.41
2023-04-12T15:48:54.752Z,98867.13
2023-04-12T15:51:24.092Z,98874.02
2023-04-12T15:53:54.851Z,98869.63
2023-04-12T15:56:26.330Z,98869.09
2023-04-12T15:58:57.905Z,98862.50
2023-04-12T16:01:28.226Z,98860.30
2023-04-12T16:03:57.780Z,98857.63
2023-04-12T16:06:28.532Z,98856.89
2023-04-12T16:08:57.829Z,98850.32
2023-04-12T16:11:28.616Z,98852.08
2023-04-12T16:13:57.300Z,98853.00
2023-04-12T16:16:26.821Z,98849.48
2023-04-12T16:18:57.930Z,98846.33
2023-04-12T16:21:26.920Z,98853.00
2023-04-12T16:23:55.716Z,98852.90
2023-04-12T16:26:24.354Z,98850.83
2023-04-12T16:28:53.614Z,98851.27
2023-04-12T16:31:23.085Z,98855.94
2023-04-12T16:34:01.043Z,98861.73
2023-04-12T16:36:31.677Z,98861.30
2023-04-12T16:39:01.867Z,98868.85
2023-04-12T16:41:30.521Z,98871.27
2023-04-12T16:44:03.634Z,98871.73
2023-04-12T16:46:37.970Z,98872.95
2023-04-12T16:49:07.010Z,98871.52
2023-04-12T16:51:36.627Z,98874.80
2023-04-12T16:54:06.791Z,98876.91
2023-04-12T16:56:35.861Z,98876.02
2023-04-12T16:59:04.846Z,98880.85
2023-04-12T17:01:34.924Z,98878.29
2023-04-12T17:04:03.633Z,98878.66
2023-04-12T17:06:34.229Z,98874.98
2023-04-12T17:09:06.596Z,98870.05
2023-04-12T17:11:36.420Z,98874.55
2023-04-12T17:14:05.040Z,98875.88
2023-04-12T17:16:37.739Z,98882.11
2023-04-12T17:19:06.878Z,98877.06
2023-04-12T17:21:42.651Z,98874.27
2023-04-12T17:24:12.301Z,98874.02
2023-04-12T17:26:41.696Z,98873.95
2023-04-12T17:29:10.550Z,98878.11
2023-04-12T17:31:39.771Z,98876.54
2023-04-12T17:34:08.970Z,98876.55
2023-04-12T17:36:38.472Z,98886.31
2023-04-12T17:39:06.955Z,98888.76
2023-04-12T17:41:35.804Z,98887.61
2023-04-12T17:44:06.886Z,98882.67
2023-04-12T17:46:38.367Z,98876.10
2023-04-12T17:49:09.276Z,98872.48
2023-04-12T17:51:37.722Z,98876.67
2023-04-12T17:54:08.867Z,98877.75
2023-04-12T17:56:38.258Z,98874.61
2023-04-12T17:59:06.647Z,98876.92
2023-04-12T18:01:37.117Z,98886.86
2023-04-12T18:04:07.409Z,98894.23
2023-04-12T18:06:36.458Z,98905.96
2023-04-12T18:09:06.618Z,98901.81
2023-04-12T18:11:39.000Z,98910.64
2023-04-12T18:14:08.574Z,98907.38
2023-04-12T18:16:41.407Z,98899.09
2023-04-12T18:19:11.507Z,98895.56
2023-04-12T18:21:40.213Z,98885.66
2023-04-12T18:24:08.932Z,98883.95
2023-04-12T18:26:37.642Z,98893.64
2023-04-12T18:29:07.422Z,98898.75
2023-04-12T18:31:39.010Z,98895.27
2023-04-12T18:34:09.103Z,98888.52
2023-04-12T18:36:38.448Z,98883.15
2023-04-12T18:39:08.223Z,98881.63
2023-04-12T18:41:37.450Z,98880.34
2023-04-12T18:44:09.266Z,98875.33
2023-04-12T18:46:37.847Z,98866.64
2023-04-12T18:49:09.482Z,98856.12
2023-04-12T18:51:38.590Z,98852.78
2023-04-12T18:54:11.390Z,98849.36
2023-04-12T18:56:42.710Z,98848.48
2023-04-12T18:59:18.079Z,98847.88
2023-04-12T19:01:48.774Z,98844.84
2023-04-12T19:04:18.305Z,98845.18
2023-04-12T19:06:47.552Z,98844.02
2023-04-12T19:09:16.662Z,98839.39
2023-04-12T19:11:46.196Z,98839.10
2023-04-12T19:14:15.315Z,98839.02
2023-04-12T19:16:43.923Z,98839.73
2023-04-12T19:19:12.959Z,98836.86
2023-04-12T19:21:41.828Z,98836.09
2023-04-12T19:24:10.218Z,98832.78
2023-04-12T19:26:46.379Z,98832.50
2023-04-12T19:29:18.911Z,98827.75
2023-04-12T19:31:49.256Z,98826.48
2023-04-12T19:34:19.141Z,98822.65
2023-04-12T19:36:47.775Z,98820.38
2023-04-12T19:39:18.403Z,98824.14
2023-04-12T19:41:49.419Z,98825.64
2023-04-12T19:44:19.862Z,98825.09
2023-04-12T19:46:48.479Z,98825.13
2023-04-12T19:49:16.790Z,98825.17
2023-04-12T19:51:46.854Z,98821.59
2023-04-12T19:54:15.265Z,98818.30
2023-04-12T19:56:48.998Z,98818.10
2023-04-12T19:59:18.137Z,98820.59
2023-04-12T20:01:48.808Z,98823.84
2023-04-12T20:04:20.261Z,98825.33
2023-04-12T20:06:50.580Z,98825.95
2023-04-12T20:09:19.958Z,98829.06
2023-04-12T20:11:48.698Z,98827.83
2023-04-12T20:14:20.214Z,98826.84
2023-04-12T20:16:50.077Z,98830.80
2023-04-12T20:19:18.834Z,98832.20
2023-04-12T20:21:47.654Z,98827.48
2023-04-12T20:24:16.346Z,98830.02
2023-04-12T20:26:47.566Z,98830.64
2023-04-12T20:29:16.166Z,98829.10
2023-04-12T20:31:47.974Z,98823.55
2023-04-12T20:34:17.901Z,98819.74
2023-04-12T20:36:48.491Z,98819.29
2023-04-12T20:39:17.899Z,98816.60
2023-04-12T20:41:50.507Z,98810.05
2023-04-12T20:44:19.832Z,98803.71
2023-04-12T20:46:49.220Z,98793.00
2023-04-12T20:49:18.018Z,98789.90
2023-04-12T20:51:47.537Z,98783.84
2023-04-12T20:54:17.045Z,98780.96
2023-04-12T20:56:45.370Z,98782.26
2023-04-12T20:59:17.751Z,98785.66
2023-04-12T21:01:47.142Z,98788.15
2023-04-12T21:04:17.547Z,98792.64
2023-04-12T21:06:50.891Z,98800.52
2023-04-12T21:09:19.563Z,98803.00
2023-04-12T21:11:48.141Z,98802.75
2023-04-12T21:14:22.428Z,98808.86
2023-04-12T21:16:52.766Z,98804.83
2023-04-12T21:19:21.376Z,98810.10
2023-04-12T21:21:53.886Z,98809.10
2023-04-12T21:24:23.045Z,98810.91
2023-04-12T21:26:56.594Z,98811.48
2023-04-12T21:29:31.996Z,98824.13
2023-04-12T21:32:02.323Z,98828.19
2023-04-12T21:34:32.968Z,98836.91
2023-04-12T21:37:02.419Z,98837.15
2023-04-12T21:39:32.514Z,98827.13
2023-04-12T21:42:01.897Z,98814.92
2023-04-12T21:44:31.245Z,98815.81
2023-04-12T21:46:59.646Z,98826.37
2023-04-12T21:49:30.454Z,98823.09
2023-04-12T21:51:59.579Z,98815.85
2023-04-12T21:54:31.611Z,98810.48
2023-04-12T21:57:00.010Z,98800.66
2023-04-12T21:59:30.765Z,98794.74
2023-04-12T22:01:59.255Z,98798.06
2023-04-12T22:04:27.692Z,98803.61
2023-04-12T22:06:58.378Z,98804.08
2023-04-12T22:09:28.043Z,98801.91
2023-04-12T22:11:57.047Z,98797.20
2023-04-12T22:14:25.385Z,98799.80
2023-04-12T22:16:55.142Z,98801.20
2023-04-12T22:19:25.147Z,98808.42
2023-04-12T22:21:57.468Z,98806.17
2023-04-12T22:24:26.422Z,98805.42
2023-04-12T22:26:57.646Z,98804.77
2023-04-12T22:29:30.591Z,98809.91
2023-04-12T22:31:59.988Z,98807.91
2023-04-12T22:34:28.566Z,98812.87
2023-04-12T22:37:00.276Z,98807.05
2023-04-12T22:39:29.745Z,98806.17
2023-04-12T22:41:59.060Z,98804.21
2023-04-12T22:44:29.369Z,98805.78
2023-04-12T22:46:57.772Z,98800.98
2023-04-12T22:49:30.895Z,98796.40
2023-04-12T22:52:00.630Z,98796.86
2023-04-12T22:54:29.022Z,98787.14
2023-04-12T22:56:59.033Z,98779.05
2023-04-12T22:59:27.845Z,98768.75
2023-04-12T23:01:56.649Z,98765.57
2023-04-12T23:04:25.025Z,98759.06
2023-04-12T23:06:57.286Z,98753.98
2023-04-12T23:09:27.483Z,98753.02
2023-04-12T23:11:55.871Z,98750.39
2023-04-12T23:14:31.907Z,98747.96
2023-04-12T23:17:01.922Z,98747.33
2023-04-12T23:19:30.598Z,98746.20
2023-04-12T23:21:58.930Z,98745.92
2023-04-12T23:24:27.793Z,98745.27
2023-04-12T23:26:58.132Z,98745.91
2023-04-12T23:29:26.750Z,98752.26
2023-04-12T23:31:55.026Z,98753.13
2023-04-12T23:34:23.494Z,98753.75
2023-04-12T23:36:51.770Z,98747.39
2023-04-12T23:39:20.615Z,98748.46
2023-04-12T23:41:49.423Z,98755.08
2023-04-12T23:44:20.591Z,98758.55
2023-04-12T23:46:51.637Z,98764.83
2023-04-12T23:49:20.199Z,98765.54
2023-04-12T23:51:52.852Z,98759.15
2023-04-12T23:54:23.261Z,98757.20
2023-04-12T23:56:52.343Z,98760.85
2023-04-12T23:59:22.502Z,98763.50
